sensor_id;sensor_type;location;lat;lon;timestamp;P1;durP1;ratioP1;P2;durP2;ratioP2
787;SDS011;16074;42.708;23.312;2023-02-01T00:08:19;9.90;;;7.93;;
787;SDS011;16074;42.708;23.312;2023-02-01T00:10:47;9.43;;;7.43;;
787;SDS011;16074;42.708;23.312;2023-02-01T00:13:16;7.65;;;6.90;;
787;SDS011;16074;42.708;23.312;2023-02-01T00:15:44;6.20;;;5.63;;
787;SDS011;16074;42.708;23.312;2023-02-01T00:18:12;8.65;;;7.85;;
787;SDS011;16074;42.708;23.312;2023-02-01T00:20:44;7.93;;;7.20;;
787;SDS011;16074;42.708;23.312;2023-02-01T00:23:13;8.48;;;7.20;;
787;SDS011;16074;42.708;23.312;2023-02-01T00:25:43;7.72;;;7.10;;
787;SDS011;16074;42.708;23.312;2023-02-01T00:28:11;8.55;;;7.65;;
787;SDS011;16074;42.708;23.312;2023-02-01T00:30:40;7.97;;;7.15;;
787;SDS011;16074;42.708;23.312;2023-02-01T00:33:08;9.82;;;7.05;;
787;SDS011;16074;42.708;23.312;2023-02-01T00:35:36;7.40;;;6.80;;
787;SDS011;16074;42.708;23.312;2023-02-01T00:38:05;8.77;;;6.82;;
787;SDS011;16074;42.708;23.312;2023-02-01T00:40:33;7.15;;;6.45;;
787;SDS011;16074;42.708;23.312;2023-02-01T00:43:02;7.13;;;6.50;;
787;SDS011;16074;42.708;23.312;2023-02-01T00:45:31;8.32;;;6.85;;
787;SDS011;16074;42.708;23.312;2023-02-01T00:47:59;8.00;;;7.30;;
787;SDS011;16074;42.708;23.312;2023-02-01T00:50:27;6.70;;;6.10;;
787;SDS011;16074;42.708;23.312;2023-02-01T00:52:55;7.75;;;5.72;;
787;SDS011;16074;42.708;23.312;2023-02-01T00:55:24;7.15;;;6.45;;
787;SDS011;16074;42.708;23.312;2023-02-01T00:57:52;6.22;;;5.63;;
787;SDS011;16074;42.708;23.312;2023-02-01T01:00:21;7.40;;;6.50;;
787;SDS011;16074;42.708;23.312;2023-02-01T01:02:50;6.80;;;6.20;;
787;SDS011;16074;42.708;23.312;2023-02-01T01:05:18;6.50;;;5.88;;
787;SDS011;16074;42.708;23.312;2023-02-01T01:07:46;6.63;;;6.03;;
787;SDS011;16074;42.708;23.312;2023-02-01T01:10:15;8.20;;;6.00;;
787;SDS011;16074;42.708;23.312;2023-02-01T01:12:43;6.68;;;6.10;;
787;SDS011;16074;42.708;23.312;2023-02-01T01:15:12;7.53;;;6.05;;
787;SDS011;16074;42.708;23.312;2023-02-01T01:17:41;6.63;;;5.05;;
787;SDS011;16074;42.708;23.312;2023-02-01T01:20:10;6.90;;;6.20;;
787;SDS011;16074;42.708;23.312;2023-02-01T01:22:39;5.75;;;5.15;;
787;SDS011;16074;42.708;23.312;2023-02-01T01:25:08;5.82;;;5.32;;
787;SDS011;16074;42.708;23.312;2023-02-01T01:27:36;4.55;;;4.20;;
787;SDS011;16074;42.708;23.312;2023-02-01T01:30:05;5.60;;;5.15;;
787;SDS011;16074;42.708;23.312;2023-02-01T01:32:34;6.68;;;6.13;;
787;SDS011;16074;42.708;23.312;2023-02-01T01:35:04;4.40;;;4.10;;
787;SDS011;16074;42.708;23.312;2023-02-01T01:37:33;4.50;;;4.20;;
787;SDS011;16074;42.708;23.312;2023-02-01T01:40:04;5.95;;;5.55;;
787;SDS011;16074;42.708;23.312;2023-02-01T01:42:36;5.05;;;4.35;;
787;SDS011;16074;42.708;23.312;2023-02-01T01:45:06;7.45;;;4.85;;
787;SDS011;16074;42.708;23.312;2023-02-01T01:47:46;4.20;;;3.90;;
787;SDS011;16074;42.708;23.312;2023-02-01T01:50:18;4.30;;;4.00;;
787;SDS011;16074;42.708;23.312;2023-02-01T01:52:51;7.28;;;4.90;;
787;SDS011;16074;42.708;23.312;2023-02-01T01:55:21;4.38;;;4.07;;
787;SDS011;16074;42.708;23.312;2023-02-01T01:57:53;5.45;;;5.00;;
787;SDS011;16074;42.708;23.312;2023-02-01T02:00:25;4.70;;;4.10;;
787;SDS011;16074;42.708;23.312;2023-02-01T02:02:57;4.55;;;4.20;;
787;SDS011;16074;42.708;23.312;2023-02-01T02:05:28;4.80;;;4.10;;
787;SDS011;16074;42.708;23.312;2023-02-01T02:07:58;6.50;;;4.53;;
787;SDS011;16074;42.708;23.312;2023-02-01T02:10:28;3.92;;;3.63;;
787;SDS011;16074;42.708;23.312;2023-02-01T02:13:11;4.28;;;3.85;;
787;SDS011;16074;42.708;23.312;2023-02-01T02:15:41;4.82;;;4.43;;
787;SDS011;16074;42.708;23.312;2023-02-01T02:18:15;4.93;;;4.53;;
787;SDS011;16074;42.708;23.312;2023-02-01T02:27:07;4.97;;;4.47;;
787;SDS011;16074;42.708;23.312;2023-02-01T02:33:14;4.10;;;3.70;;
787;SDS011;16074;42.708;23.312;2023-02-01T02:36:10;5.53;;;3.35;;
787;SDS011;16074;42.708;23.312;2023-02-01T02:38:47;5.13;;;4.70;;
787;SDS011;16074;42.708;23.312;2023-02-01T02:41:25;4.60;;;4.15;;
787;SDS011;16074;42.708;23.312;2023-02-01T02:44:20;4.70;;;4.35;;
787;SDS011;16074;42.708;23.312;2023-02-01T02:47:15;4.78;;;4.38;;
787;SDS011;16074;42.708;23.312;2023-02-01T02:49:56;4.90;;;4.38;;
787;SDS011;16074;42.708;23.312;2023-02-01T02:52:50;4.57;;;4.18;;
787;SDS011;16074;42.708;23.312;2023-02-01T02:55:41;4.20;;;3.85;;
787;SDS011;16074;42.708;23.312;2023-02-01T02:58:11;5.38;;;4.53;;
787;SDS011;16074;42.708;23.312;2023-02-01T03:00:58;5.03;;;4.60;;
787;SDS011;16074;42.708;23.312;2023-02-01T03:03:45;4.85;;;4.22;;
787;SDS011;16074;42.708;23.312;2023-02-01T03:06:39;4.43;;;4.03;;
787;SDS011;16074;42.708;23.312;2023-02-01T03:09:09;4.57;;;3.70;;
787;SDS011;16074;42.708;23.312;2023-02-01T03:11:44;5.05;;;4.53;;
787;SDS011;16074;42.708;23.312;2023-02-01T03:14:33;4.38;;;4.07;;
787;SDS011;16074;42.708;23.312;2023-02-01T03:17:04;6.07;;;4.40;;
787;SDS011;16074;42.708;23.312;2023-02-01T03:19:40;4.15;;;3.70;;
787;SDS011;16074;42.708;23.312;2023-02-01T03:22:18;3.88;;;3.58;;
787;SDS011;16074;42.708;23.312;2023-02-01T03:24:52;4.63;;;4.22;;
787;SDS011;16074;42.708;23.312;2023-02-01T03:27:24;4.82;;;4.10;;
787;SDS011;16074;42.708;23.312;2023-02-01T03:29:59;7.63;;;4.20;;
787;SDS011;16074;42.708;23.312;2023-02-01T03:32:32;4.88;;;4.53;;
787;SDS011;16074;42.708;23.312;2023-02-01T03:35:23;4.38;;;3.97;;
787;SDS011;16074;42.708;23.312;2023-02-01T03:37:59;4.32;;;3.85;;
787;SDS011;16074;42.708;23.312;2023-02-01T03:40:32;5.50;;;4.47;;
787;SDS011;16074;42.708;23.312;2023-02-01T03:43:06;5.13;;;4.47;;
787;SDS011;16074;42.708;23.312;2023-02-01T03:45:39;5.03;;;4.18;;
787;SDS011;16074;42.708;23.312;2023-02-01T03:48:11;5.20;;;4.32;;
787;SDS011;16074;42.708;23.312;2023-02-01T03:50:43;6.15;;;4.07;;
787;SDS011;16074;42.708;23.312;2023-02-01T03:53:17;4.85;;;4.38;;
787;SDS011;16074;42.708;23.312;2023-02-01T03:55:49;4.97;;;3.97;;
787;SDS011;16074;42.708;23.312;2023-02-01T03:58:19;4.03;;;3.67;;
787;SDS011;16074;42.708;23.312;2023-02-01T04:00:50;4.10;;;3.78;;
787;SDS011;16074;42.708;23.312;2023-02-01T04:03:21;5.38;;;3.80;;
787;SDS011;16074;42.708;23.312;2023-02-01T04:05:49;3.60;;;3.28;;
787;SDS011;16074;42.708;23.312;2023-02-01T04:08:23;4.25;;;3.97;;
787;SDS011;16074;42.708;23.312;2023-02-01T04:10:52;5.20;;;4.70;;
787;SDS011;16074;42.708;23.312;2023-02-01T04:13:20;7.68;;;6.97;;
787;SDS011;16074;42.708;23.312;2023-02-01T04:15:48;8.02;;;7.32;;
787;SDS011;16074;42.708;23.312;2023-02-01T04:18:17;6.95;;;6.20;;
787;SDS011;16074;42.708;23.312;2023-02-01T04:20:45;4.00;;;3.75;;
787;SDS011;16074;42.708;23.312;2023-02-01T04:23:13;3.90;;;3.50;;
787;SDS011;16074;42.708;23.312;2023-02-01T04:25:44;4.40;;;4.10;;
787;SDS011;16074;42.708;23.312;2023-02-01T04:28:12;5.82;;;4.30;;
787;SDS011;16074;42.708;23.312;2023-02-01T04:30:40;4.28;;;3.97;;
787;SDS011;16074;42.708;23.312;2023-02-01T04:33:09;3.50;;;3.30;;
787;SDS011;16074;42.708;23.312;2023-02-01T04:35:40;3.83;;;3.53;;
787;SDS011;16074;42.708;23.312;2023-02-01T04:38:08;5.50;;;4.72;;
787;SDS011;16074;42.708;23.312;2023-02-01T04:40:37;4.65;;;4.15;;
787;SDS011;16074;42.708;23.312;2023-02-01T04:43:06;4.88;;;4.18;;
787;SDS011;16074;42.708;23.312;2023-02-01T04:45:35;4.75;;;4.35;;
787;SDS011;16074;42.708;23.312;2023-02-01T04:48:03;4.45;;;3.80;;
787;SDS011;16074;42.708;23.312;2023-02-01T04:50:32;5.20;;;4.85;;
787;SDS011;16074;42.708;23.312;2023-02-01T04:53:00;5.00;;;4.50;;
787;SDS011;16074;42.708;23.312;2023-02-01T04:55:28;4.85;;;4.45;;
787;SDS011;16074;42.708;23.312;2023-02-01T04:57:57;5.95;;;5.35;;
787;SDS011;16074;42.708;23.312;2023-02-01T05:00:26;4.80;;;4.40;;
787;SDS011;16074;42.708;23.312;2023-02-01T05:02:55;8.40;;;5.47;;
787;SDS011;16074;42.708;23.312;2023-02-01T05:05:23;5.32;;;4.85;;
787;SDS011;16074;42.708;23.312;2023-02-01T05:07:51;5.50;;;5.03;;
787;SDS011;16074;42.708;23.312;2023-02-01T05:10:20;6.43;;;5.50;;
787;SDS011;16074;42.708;23.312;2023-02-01T05:12:49;6.18;;;4.38;;
787;SDS011;16074;42.708;23.312;2023-02-01T05:15:35;8.50;;;5.57;;
787;SDS011;16074;42.708;23.312;2023-02-01T05:18:04;4.82;;;4.32;;
787;SDS011;16074;42.708;23.312;2023-02-01T05:20:32;6.28;;;5.78;;
787;SDS011;16074;42.708;23.312;2023-02-01T05:23:00;6.05;;;5.07;;
787;SDS011;16074;42.708;23.312;2023-02-01T05:25:29;6.95;;;5.45;;
787;SDS011;16074;42.708;23.312;2023-02-01T05:27:57;5.32;;;4.82;;
787;SDS011;16074;42.708;23.312;2023-02-01T05:30:25;5.78;;;5.28;;
787;SDS011;16074;42.708;23.312;2023-02-01T05:32:55;7.35;;;4.32;;
787;SDS011;16074;42.708;23.312;2023-02-01T05:35:23;5.28;;;4.75;;
787;SDS011;16074;42.708;23.312;2023-02-01T05:37:52;5.47;;;4.95;;
787;SDS011;16074;42.708;23.312;2023-02-01T05:40:20;5.95;;;5.45;;
787;SDS011;16074;42.708;23.312;2023-02-01T05:42:48;5.30;;;4.80;;
787;SDS011;16074;42.708;23.312;2023-02-01T05:45:16;9.80;;;7.40;;
787;SDS011;16074;42.708;23.312;2023-02-01T05:47:45;6.03;;;5.53;;
787;SDS011;16074;42.708;23.312;2023-02-01T05:52:54;5.30;;;4.90;;
787;SDS011;16074;42.708;23.312;2023-02-01T05:55:22;8.38;;;6.10;;
787;SDS011;16074;42.708;23.312;2023-02-01T05:57:50;8.02;;;5.65;;
787;SDS011;16074;42.708;23.312;2023-02-01T06:00:19;7.13;;;5.63;;
787;SDS011;16074;42.708;23.312;2023-02-01T06:02:48;12.75;;;6.10;;
787;SDS011;16074;42.708;23.312;2023-02-01T06:05:18;6.25;;;5.65;;
787;SDS011;16074;42.708;23.312;2023-02-01T06:07:46;6.05;;;5.45;;
787;SDS011;16074;42.708;23.312;2023-02-01T06:10:15;5.25;;;4.85;;
787;SDS011;16074;42.708;23.312;2023-02-01T06:12:43;8.25;;;6.10;;
787;SDS011;16074;42.708;23.312;2023-02-01T06:15:13;4.68;;;4.25;;
787;SDS011;16074;42.708;23.312;2023-02-01T06:17:42;5.65;;;5.15;;
787;SDS011;16074;42.708;23.312;2023-02-01T06:20:11;9.93;;;4.47;;
787;SDS011;16074;42.708;23.312;2023-02-01T06:22:42;10.65;;;5.10;;
787;SDS011;16074;42.708;23.312;2023-02-01T06:25:11;6.07;;;5.57;;
787;SDS011;16074;42.708;23.312;2023-02-01T06:27:39;5.65;;;5.25;;
787;SDS011;16074;42.708;23.312;2023-02-01T06:30:07;6.43;;;5.68;;
787;SDS011;16074;42.708;23.312;2023-02-01T06:32:37;9.70;;;5.00;;
787;SDS011;16074;42.708;23.312;2023-02-01T06:35:06;6.47;;;5.30;;
787;SDS011;16074;42.708;23.312;2023-02-01T06:37:37;4.00;;;3.75;;
787;SDS011;16074;42.708;23.312;2023-02-01T06:40:08;4.10;;;3.80;;
787;SDS011;16074;42.708;23.312;2023-02-01T06:42:37;6.40;;;4.82;;
787;SDS011;16074;42.708;23.312;2023-02-01T06:45:05;5.65;;;5.03;;
787;SDS011;16074;42.708;23.312;2023-02-01T06:47:34;4.22;;;3.90;;
787;SDS011;16074;42.708;23.312;2023-02-01T06:50:02;9.20;;;4.88;;
787;SDS011;16074;42.708;23.312;2023-02-01T06:52:31;4.25;;;3.95;;
787;SDS011;16074;42.708;23.312;2023-02-01T06:54:59;5.13;;;4.50;;
787;SDS011;16074;42.708;23.312;2023-02-01T06:57:29;4.60;;;4.20;;
787;SDS011;16074;42.708;23.312;2023-02-01T06:59:59;7.97;;;4.72;;
787;SDS011;16074;42.708;23.312;2023-02-01T07:02:28;7.47;;;5.72;;
787;SDS011;16074;42.708;23.312;2023-02-01T07:04:56;6.47;;;4.80;;
787;SDS011;16074;42.708;23.312;2023-02-01T07:07:24;9.18;;;5.97;;
787;SDS011;16074;42.708;23.312;2023-02-01T07:09:52;6.55;;;6.05;;
787;SDS011;16074;42.708;23.312;2023-02-01T07:12:21;7.88;;;4.60;;
787;SDS011;16074;42.708;23.312;2023-02-01T07:14:50;7.85;;;5.70;;
787;SDS011;16074;42.708;23.312;2023-02-01T07:17:18;8.00;;;5.20;;
787;SDS011;16074;42.708;23.312;2023-02-01T07:19:47;8.35;;;5.28;;
787;SDS011;16074;42.708;23.312;2023-02-01T07:22:15;6.60;;;5.82;;
787;SDS011;16074;42.708;23.312;2023-02-01T07:24:44;7.10;;;5.75;;
787;SDS011;16074;42.708;23.312;2023-02-01T07:27:12;6.60;;;6.00;;
787;SDS011;16074;42.708;23.312;2023-02-01T07:29:41;7.38;;;6.10;;
787;SDS011;16074;42.708;23.312;2023-02-01T07:32:10;4.10;;;3.80;;
787;SDS011;16074;42.708;23.312;2023-02-01T07:34:39;4.63;;;4.10;;
787;SDS011;16074;42.708;23.312;2023-02-01T07:37:07;7.18;;;6.28;;
787;SDS011;16074;42.708;23.312;2023-02-01T07:39:35;8.02;;;4.63;;
787;SDS011;16074;42.708;23.312;2023-02-01T07:42:03;3.65;;;3.45;;
787;SDS011;16074;42.708;23.312;2023-02-01T07:44:32;7.18;;;4.30;;
787;SDS011;16074;42.708;23.312;2023-02-01T07:47:00;6.55;;;5.82;;
787;SDS011;16074;42.708;23.312;2023-02-01T07:49:30;8.65;;;4.38;;
787;SDS011;16074;42.708;23.312;2023-02-01T07:51:58;3.35;;;3.05;;
787;SDS011;16074;42.708;23.312;2023-02-01T07:54:27;4.68;;;3.78;;
787;SDS011;16074;42.708;23.312;2023-02-01T07:56:55;7.13;;;4.93;;
787;SDS011;16074;42.708;23.312;2023-02-01T07:59:24;4.60;;;4.13;;
787;SDS011;16074;42.708;23.312;2023-02-01T08:01:52;4.32;;;3.97;;
787;SDS011;16074;42.708;23.312;2023-02-01T08:04:19;4.65;;;3.70;;
787;SDS011;16074;42.708;23.312;2023-02-01T08:06:49;4.40;;;4.00;;
787;SDS011;16074;42.708;23.312;2023-02-01T08:09:17;10.23;;;8.18;;
787;SDS011;16074;42.708;23.312;2023-02-01T08:11:46;4.85;;;4.45;;
787;SDS011;16074;42.708;23.312;2023-02-01T08:14:14;4.93;;;4.22;;
787;SDS011;16074;42.708;23.312;2023-02-01T08:16:42;7.13;;;5.05;;
787;SDS011;16074;42.708;23.312;2023-02-01T08:19:10;4.10;;;3.70;;
787;SDS011;16074;42.708;23.312;2023-02-01T08:21:39;4.30;;;3.55;;
787;SDS011;16074;42.708;23.312;2023-02-01T08:24:09;4.85;;;4.45;;
787;SDS011;16074;42.708;23.312;2023-02-01T08:26:37;9.73;;;6.85;;
787;SDS011;16074;42.708;23.312;2023-02-01T08:29:07;9.27;;;5.30;;
787;SDS011;16074;42.708;23.312;2023-02-01T08:31:38;4.70;;;4.40;;
787;SDS011;16074;42.708;23.312;2023-02-01T08:34:08;7.03;;;5.00;;
787;SDS011;16074;42.708;23.312;2023-02-01T08:36:38;5.18;;;3.92;;
787;SDS011;16074;42.708;23.312;2023-02-01T08:39:09;4.03;;;3.60;;
787;SDS011;16074;42.708;23.312;2023-02-01T08:41:38;4.45;;;4.15;;
787;SDS011;16074;42.708;23.312;2023-02-01T08:44:08;4.97;;;3.90;;
787;SDS011;16074;42.708;23.312;2023-02-01T08:46:36;4.60;;;3.92;;
787;SDS011;16074;42.708;23.312;2023-02-01T08:49:05;3.97;;;3.67;;
787;SDS011;16074;42.708;23.312;2023-02-01T08:51:33;4.75;;;3.25;;
787;SDS011;16074;42.708;23.312;2023-02-01T08:54:01;6.57;;;4.30;;
787;SDS011;16074;42.708;23.312;2023-02-01T08:56:31;7.13;;;3.17;;
787;SDS011;16074;42.708;23.312;2023-02-01T08:58:59;4.85;;;3.35;;
787;SDS011;16074;42.708;23.312;2023-02-01T09:01:27;4.70;;;3.80;;
787;SDS011;16074;42.708;23.312;2023-02-01T09:03:55;4.95;;;4.55;;
787;SDS011;16074;42.708;23.312;2023-02-01T09:06:24;3.70;;;3.50;;
787;SDS011;16074;42.708;23.312;2023-02-01T09:08:52;5.05;;;3.60;;
787;SDS011;16074;42.708;23.312;2023-02-01T09:11:20;5.07;;;2.85;;
787;SDS011;16074;42.708;23.312;2023-02-01T09:13:50;6.35;;;2.88;;
787;SDS011;16074;42.708;23.312;2023-02-01T09:16:18;3.17;;;2.70;;
787;SDS011;16074;42.708;23.312;2023-02-01T09:18:47;3.40;;;3.10;;
787;SDS011;16074;42.708;23.312;2023-02-01T09:21:33;3.50;;;3.20;;
787;SDS011;16074;42.708;23.312;2023-02-01T09:24:01;6.22;;;4.82;;
787;SDS011;16074;42.708;23.312;2023-02-01T09:26:30;5.47;;;4.97;;
787;SDS011;16074;42.708;23.312;2023-02-01T09:29:00;3.33;;;3.05;;
787;SDS011;16074;42.708;23.312;2023-02-01T09:31:30;4.95;;;4.10;;
787;SDS011;16074;42.708;23.312;2023-02-01T09:33:58;3.55;;;3.25;;
787;SDS011;16074;42.708;23.312;2023-02-01T09:36:26;4.63;;;3.83;;
787;SDS011;16074;42.708;23.312;2023-02-01T09:38:57;3.20;;;2.90;;
787;SDS011;16074;42.708;23.312;2023-02-01T09:41:29;3.25;;;2.80;;
787;SDS011;16074;42.708;23.312;2023-02-01T09:44:10;3.47;;;3.28;;
787;SDS011;16074;42.708;23.312;2023-02-01T09:46:55;2.83;;;2.53;;
787;SDS011;16074;42.708;23.312;2023-02-01T09:49:26;2.65;;;2.45;;
787;SDS011;16074;42.708;23.312;2023-02-01T09:51:56;2.67;;;2.45;;
787;SDS011;16074;42.708;23.312;2023-02-01T09:54:29;3.95;;;3.40;;
787;SDS011;16074;42.708;23.312;2023-02-01T09:57:08;3.25;;;3.05;;
787;SDS011;16074;42.708;23.312;2023-02-01T09:59:46;3.42;;;2.90;;
787;SDS011;16074;42.708;23.312;2023-02-01T10:02:20;3.97;;;2.78;;
787;SDS011;16074;42.708;23.312;2023-02-01T10:04:52;4.38;;;3.97;;
787;SDS011;16074;42.708;23.312;2023-02-01T10:07:25;2.75;;;2.50;;
787;SDS011;16074;42.708;23.312;2023-02-01T10:10:04;4.13;;;3.08;;
787;SDS011;16074;42.708;23.312;2023-02-01T10:12:44;3.20;;;3.00;;
787;SDS011;16074;42.708;23.312;2023-02-01T10:15:42;3.33;;;3.10;;
787;SDS011;16074;42.708;23.312;2023-02-01T10:18:37;2.15;;;2.05;;
787;SDS011;16074;42.708;23.312;2023-02-01T10:21:16;3.75;;;2.95;;
787;SDS011;16074;42.708;23.312;2023-02-01T10:24:02;3.40;;;3.08;;
787;SDS011;16074;42.708;23.312;2023-02-01T10:26:44;3.70;;;3.40;;
787;SDS011;16074;42.708;23.312;2023-02-01T10:29:18;5.15;;;4.60;;
787;SDS011;16074;42.708;23.312;2023-02-01T10:31:51;3.80;;;3.50;;
787;SDS011;16074;42.708;23.312;2023-02-01T10:34:21;4.65;;;3.35;;
787;SDS011;16074;42.708;23.312;2023-02-01T10:36:54;6.03;;;3.20;;
787;SDS011;16074;42.708;23.312;2023-02-01T10:39:25;5.05;;;3.25;;
787;SDS011;16074;42.708;23.312;2023-02-01T10:41:53;3.33;;;3.13;;
787;SDS011;16074;42.708;23.312;2023-02-01T10:44:24;3.47;;;3.17;;
787;SDS011;16074;42.708;23.312;2023-02-01T10:46:56;3.08;;;2.88;;
787;SDS011;16074;42.708;23.312;2023-02-01T10:49:25;5.57;;;4.32;;
787;SDS011;16074;42.708;23.312;2023-02-01T10:52:00;3.30;;;3.00;;
787;SDS011;16074;42.708;23.312;2023-02-01T10:54:35;2.90;;;2.65;;
787;SDS011;16074;42.708;23.312;2023-02-01T10:57:07;5.05;;;4.50;;
787;SDS011;16074;42.708;23.312;2023-02-01T10:59:36;2.70;;;2.47;;
787;SDS011;16074;42.708;23.312;2023-02-01T11:02:16;3.40;;;3.20;;
787;SDS011;16074;42.708;23.312;2023-02-01T11:04:50;3.42;;;2.63;;
787;SDS011;16074;42.708;23.312;2023-02-01T11:07:26;2.65;;;2.55;;
787;SDS011;16074;42.708;23.312;2023-02-01T11:09:54;2.75;;;2.55;;
787;SDS011;16074;42.708;23.312;2023-02-01T11:12:28;2.55;;;2.30;;
787;SDS011;16074;42.708;23.312;2023-02-01T11:15:03;3.00;;;2.78;;
787;SDS011;16074;42.708;23.312;2023-02-01T11:17:43;2.17;;;2.08;;
787;SDS011;16074;42.708;23.312;2023-02-01T11:20:13;4.28;;;3.70;;
787;SDS011;16074;42.708;23.312;2023-02-01T11:22:47;3.08;;;2.78;;
787;SDS011;16074;42.708;23.312;2023-02-01T11:25:20;2.92;;;2.20;;
787;SDS011;16074;42.708;23.312;2023-02-01T11:27:49;4.22;;;3.13;;
787;SDS011;16074;42.708;23.312;2023-02-01T11:30:24;2.13;;;1.90;;
787;SDS011;16074;42.708;23.312;2023-02-01T11:33:00;4.07;;;3.67;;
787;SDS011;16074;42.708;23.312;2023-02-01T11:35:32;3.30;;;3.10;;
787;SDS011;16074;42.708;23.312;2023-02-01T11:38:10;3.15;;;2.90;;
787;SDS011;16074;42.708;23.312;2023-02-01T11:40:41;3.90;;;2.67;;
787;SDS011;16074;42.708;23.312;2023-02-01T11:43:13;2.30;;;2.10;;
787;SDS011;16074;42.708;23.312;2023-02-01T11:45:53;4.30;;;3.35;;
787;SDS011;16074;42.708;23.312;2023-02-01T11:48:25;3.30;;;3.00;;
787;SDS011;16074;42.708;23.312;2023-02-01T11:50:58;2.90;;;2.70;;
787;SDS011;16074;42.708;23.312;2023-02-01T11:53:44;3.03;;;1.88;;
787;SDS011;16074;42.708;23.312;2023-02-01T11:56:31;2.20;;;2.00;;
787;SDS011;16074;42.708;23.312;2023-02-01T11:59:17;4.22;;;3.80;;
787;SDS011;16074;42.708;23.312;2023-02-01T12:02:13;2.40;;;2.20;;
787;SDS011;16074;42.708;23.312;2023-02-01T12:05:04;3.40;;;3.10;;
787;SDS011;16074;42.708;23.312;2023-02-01T12:07:48;3.90;;;3.70;;
787;SDS011;16074;42.708;23.312;2023-02-01T12:10:27;2.80;;;2.60;;
787;SDS011;16074;42.708;23.312;2023-02-01T12:13:06;3.72;;;3.42;;
787;SDS011;16074;42.708;23.312;2023-02-01T12:15:46;8.57;;;5.72;;
787;SDS011;16074;42.708;23.312;2023-02-01T12:18:37;4.00;;;3.55;;
787;SDS011;16074;42.708;23.312;2023-02-01T12:21:26;2.72;;;2.38;;
787;SDS011;16074;42.708;23.312;2023-02-01T12:24:18;2.78;;;2.63;;
787;SDS011;16074;42.708;23.312;2023-02-01T12:27:05;4.30;;;4.00;;
787;SDS011;16074;42.708;23.312;2023-02-01T12:29:48;1.85;;;1.65;;
787;SDS011;16074;42.708;23.312;2023-02-01T12:32:34;2.00;;;1.90;;
787;SDS011;16074;42.708;23.312;2023-02-01T12:35:17;2.55;;;2.35;;
787;SDS011;16074;42.708;23.312;2023-02-01T12:38:09;2.70;;;1.73;;
787;SDS011;16074;42.708;23.312;2023-02-01T12:40:52;1.90;;;1.80;;
787;SDS011;16074;42.708;23.312;2023-02-01T12:43:36;2.10;;;1.98;;
787;SDS011;16074;42.708;23.312;2023-02-01T12:46:09;1.95;;;1.85;;
787;SDS011;16074;42.708;23.312;2023-02-01T12:48:53;2.10;;;2.00;;
787;SDS011;16074;42.708;23.312;2023-02-01T12:51:26;4.97;;;1.90;;
787;SDS011;16074;42.708;23.312;2023-02-01T12:54:00;2.85;;;2.40;;
787;SDS011;16074;42.708;23.312;2023-02-01T12:56:38;1.95;;;1.85;;
787;SDS011;16074;42.708;23.312;2023-02-01T12:59:13;2.45;;;1.95;;
787;SDS011;16074;42.708;23.312;2023-02-01T13:01:49;1.77;;;1.70;;
787;SDS011;16074;42.708;23.312;2023-02-01T13:04:27;3.17;;;1.70;;
787;SDS011;16074;42.708;23.312;2023-02-01T13:07:01;2.13;;;1.90;;
787;SDS011;16074;42.708;23.312;2023-02-01T13:09:39;3.75;;;2.33;;
787;SDS011;16074;42.708;23.312;2023-02-01T13:12:13;1.77;;;1.67;;
787;SDS011;16074;42.708;23.312;2023-02-01T13:14:46;2.15;;;2.05;;
787;SDS011;16074;42.708;23.312;2023-02-01T13:17:20;3.08;;;2.17;;
787;SDS011;16074;42.708;23.312;2023-02-01T13:19:52;2.33;;;2.20;;
787;SDS011;16074;42.708;23.312;2023-02-01T13:22:25;2.42;;;2.17;;
787;SDS011;16074;42.708;23.312;2023-02-01T13:24:59;4.32;;;2.10;;
787;SDS011;16074;42.708;23.312;2023-02-01T13:27:30;2.67;;;2.10;;
787;SDS011;16074;42.708;23.312;2023-02-01T13:30:00;2.35;;;2.10;;
787;SDS011;16074;42.708;23.312;2023-02-01T13:32:43;2.38;;;2.03;;
787;SDS011;16074;42.708;23.312;2023-02-01T13:35:55;1.98;;;1.70;;
787;SDS011;16074;42.708;23.312;2023-02-01T13:41:52;1.90;;;1.80;;
787;SDS011;16074;42.708;23.312;2023-02-01T13:44:25;2.45;;;2.15;;
787;SDS011;16074;42.708;23.312;2023-02-01T13:46:58;2.10;;;2.00;;
787;SDS011;16074;42.708;23.312;2023-02-01T13:49:31;1.80;;;1.40;;
787;SDS011;16074;42.708;23.312;2023-02-01T13:52:05;2.63;;;2.03;;
787;SDS011;16074;42.708;23.312;2023-02-01T13:54:34;3.15;;;2.53;;
787;SDS011;16074;42.708;23.312;2023-02-01T13:57:29;5.68;;;4.95;;
787;SDS011;16074;42.708;23.312;2023-02-01T14:00:05;3.78;;;3.47;;
787;SDS011;16074;42.708;23.312;2023-02-01T14:02:49;7.38;;;6.72;;
787;SDS011;16074;42.708;23.312;2023-02-01T14:08:41;3.60;;;3.40;;
787;SDS011;16074;42.708;23.312;2023-02-01T14:23:13;4.78;;;4.28;;
787;SDS011;16074;42.708;23.312;2023-02-01T14:25:44;4.65;;;3.80;;
787;SDS011;16074;42.708;23.312;2023-02-01T14:28:21;3.90;;;3.60;;
787;SDS011;16074;42.708;23.312;2023-02-01T14:30:53;9.93;;;6.97;;
787;SDS011;16074;42.708;23.312;2023-02-01T14:33:24;6.40;;;3.03;;
787;SDS011;16074;42.708;23.312;2023-02-01T14:35:56;5.88;;;4.57;;
787;SDS011;16074;42.708;23.312;2023-02-01T14:38:34;4.55;;;4.03;;
787;SDS011;16074;42.708;23.312;2023-02-01T14:47:06;4.32;;;4.00;;
787;SDS011;16074;42.708;23.312;2023-02-01T14:49:39;3.45;;;3.17;;
787;SDS011;16074;42.708;23.312;2023-02-01T14:52:18;3.40;;;2.00;;
787;SDS011;16074;42.708;23.312;2023-02-01T14:54:51;3.70;;;3.40;;
787;SDS011;16074;42.708;23.312;2023-02-01T14:57:24;4.13;;;3.72;;
787;SDS011;16074;42.708;23.312;2023-02-01T15:00:05;4.93;;;3.20;;
787;SDS011;16074;42.708;23.312;2023-02-01T15:02:40;6.82;;;4.97;;
787;SDS011;16074;42.708;23.312;2023-02-01T15:05:20;3.40;;;3.20;;
787;SDS011;16074;42.708;23.312;2023-02-01T15:07:58;10.88;;;6.43;;
787;SDS011;16074;42.708;23.312;2023-02-01T15:10:33;6.15;;;4.68;;
787;SDS011;16074;42.708;23.312;2023-02-01T15:13:17;13.43;;;6.35;;
787;SDS011;16074;42.708;23.312;2023-02-01T15:16:00;11.80;;;5.70;;
787;SDS011;16074;42.708;23.312;2023-02-01T15:18:30;5.05;;;4.20;;
787;SDS011;16074;42.708;23.312;2023-02-01T15:21:01;5.68;;;4.63;;
787;SDS011;16074;42.708;23.312;2023-02-01T15:23:56;6.90;;;5.32;;
787;SDS011;16074;42.708;23.312;2023-02-01T15:26:38;5.65;;;5.20;;
787;SDS011;16074;42.708;23.312;2023-02-01T15:29:09;5.28;;;4.78;;
787;SDS011;16074;42.708;23.312;2023-02-01T15:31:39;7.15;;;5.47;;
787;SDS011;16074;42.708;23.312;2023-02-01T15:34:11;5.55;;;4.82;;
787;SDS011;16074;42.708;23.312;2023-02-01T15:36:41;4.93;;;4.53;;
787;SDS011;16074;42.708;23.312;2023-02-01T15:39:27;4.22;;;3.92;;
787;SDS011;16074;42.708;23.312;2023-02-01T15:41:58;4.90;;;3.75;;
787;SDS011;16074;42.708;23.312;2023-02-01T15:44:30;6.15;;;4.03;;
787;SDS011;16074;42.708;23.312;2023-02-01T15:47:05;4.93;;;3.42;;
787;SDS011;16074;42.708;23.312;2023-02-01T15:49:39;10.60;;;8.75;;
787;SDS011;16074;42.708;23.312;2023-02-01T15:52:23;6.38;;;5.32;;
787;SDS011;16074;42.708;23.312;2023-02-01T15:54:55;5.57;;;4.85;;
787;SDS011;16074;42.708;23.312;2023-02-01T15:57:26;4.45;;;4.20;;
787;SDS011;16074;42.708;23.312;2023-02-01T15:59:58;5.63;;;3.95;;
787;SDS011;16074;42.708;23.312;2023-02-01T16:02:41;5.88;;;4.55;;
787;SDS011;16074;42.708;23.312;2023-02-01T16:05:32;6.65;;;4.10;;
787;SDS011;16074;42.708;23.312;2023-02-01T16:08:08;5.43;;;4.05;;
787;SDS011;16074;42.708;23.312;2023-02-01T16:10:41;6.30;;;4.63;;
787;SDS011;16074;42.708;23.312;2023-02-01T16:13:12;4.50;;;4.05;;
787;SDS011;16074;42.708;23.312;2023-02-01T16:15:40;4.22;;;3.83;;
787;SDS011;16074;42.708;23.312;2023-02-01T16:18:10;4.60;;;4.20;;
787;SDS011;16074;42.708;23.312;2023-02-01T16:20:42;6.20;;;4.35;;